sensor_id;sensor_type;location;lat;lon;timestamp;temperature;humidity
71291;DHT22;59073;51.994;4.448;2023-03-31T00:00:25;11.92;80.01
71291;DHT22;59073;51.994;4.448;2023-03-31T00:02:51;11.98;79.97
71291;DHT22;59073;51.994;4.448;2023-03-31T00:05:18;11.88;79.91
71291;DHT22;59073;51.994;4.448;2023-03-31T00:07:46;11.82;80.20
71291;DHT22;59073;51.994;4.448;2023-03-31T00:10:13;11.81;80.38
71291;DHT22;59073;51.994;4.448;2023-03-31T00:12:39;11.82;80.85
71291;DHT22;59073;51.994;4.448;2023-03-31T00:15:05;11.78;81.67
71291;DHT22;59073;51.994;4.448;2023-03-31T00:17:31;11.71;82.23
71291;DHT22;59073;51.994;4.448;2023-03-31T00:19:58;11.67;82.25
71291;DHT22;59073;51.994;4.448;2023-03-31T00:22:26;11.74;82.10
71291;DHT22;59073;51.994;4.448;2023-03-31T00:24:52;11.79;81.79
71291;DHT22;59073;51.994;4.448;2023-03-31T00:27:18;11.78;81.93
71291;DHT22;59073;51.994;4.448;2023-03-31T00:29:43;11.65;82.28
71291;DHT22;59073;51.994;4.448;2023-03-31T00:32:10;11.67;82.15
71291;DHT22;59073;51.994;4.448;2023-03-31T00:34:36;11.74;82.09
71291;DHT22;59073;51.994;4.448;2023-03-31T00:37:02;11.77;81.82
71291;DHT22;59073;51.994;4.448;2023-03-31T00:39:28;11.88;82.04
71291;DHT22;59073;51.994;4.448;2023-03-31T00:42:03;11.82;82.18
71291;DHT22;59073;51.994;4.448;2023-03-31T00:44:30;11.85;82.22
71291;DHT22;59073;51.994;4.448;2023-03-31T00:47:11;11.99;82.04
71291;DHT22;59073;51.994;4.448;2023-03-31T00:49:46;11.99;82.07
71291;DHT22;59073;51.994;4.448;2023-03-31T00:52:31;11.99;82.24
71291;DHT22;59073;51.994;4.448;2023-03-31T00:55:10;12.06;82.15
71291;DHT22;59073;51.994;4.448;2023-03-31T00:57:40;12.09;81.85
71291;DHT22;59073;51.994;4.448;2023-03-31T01:00:11;12.19;81.80
71291;DHT22;59073;51.994;4.448;2023-03-31T01:02:47;12.18;81.73
71291;DHT22;59073;51.994;4.448;2023-03-31T01:07:59;12.22;82.54
71291;DHT22;59073;51.994;4.448;2023-03-31T01:10:26;12.26;82.69
71291;DHT22;59073;51.994;4.448;2023-03-31T01:12:54;12.25;82.62
71291;DHT22;59073;51.994;4.448;2023-03-31T01:15:21;12.29;83.09
71291;DHT22;59073;51.994;4.448;2023-03-31T01:17:47;12.20;83.39
71291;DHT22;59073;51.994;4.448;2023-03-31T01:20:25;12.13;83.97
71291;DHT22;59073;51.994;4.448;2023-03-31T01:23:38;12.09;84.38
71291;DHT22;59073;51.994;4.448;2023-03-31T01:32:06;12.03;84.66
71291;DHT22;59073;51.994;4.448;2023-03-31T01:38:23;12.05;84.83
71291;DHT22;59073;51.994;4.448;2023-03-31T01:43:37;11.98;85.01
71291;DHT22;59073;51.994;4.448;2023-03-31T01:46:27;11.95;85.36
71291;DHT22;59073;51.994;4.448;2023-03-31T01:57:21;11.81;86.07
71291;DHT22;59073;51.994;4.448;2023-03-31T02:00:08;11.81;86.29
71291;DHT22;59073;51.994;4.448;2023-03-31T02:02:56;11.78;86.08
71291;DHT22;59073;51.994;4.448;2023-03-31T02:05:28;11.75;86.44
71291;DHT22;59073;51.994;4.448;2023-03-31T02:08:06;11.72;86.48
71291;DHT22;59073;51.994;4.448;2023-03-31T02:10:34;11.75;86.38
71291;DHT22;59073;51.994;4.448;2023-03-31T02:13:02;11.67;86.47
71291;DHT22;59073;51.994;4.448;2023-03-31T02:15:34;11.64;86.49
71291;DHT22;59073;51.994;4.448;2023-03-31T02:18:03;11.60;86.69
71291;DHT22;59073;51.994;4.448;2023-03-31T02:20:38;11.65;86.60
71291;DHT22;59073;51.994;4.448;2023-03-31T02:23:09;11.61;86.55
71291;DHT22;59073;51.994;4.448;2023-03-31T02:25:50;11.62;86.75
71291;DHT22;59073;51.994;4.448;2023-03-31T02:28:24;11.61;86.73
71291;DHT22;59073;51.994;4.448;2023-03-31T02:31:04;11.64;86.48
71291;DHT22;59073;51.994;4.448;2023-03-31T02:33:31;11.60;86.59
71291;DHT22;59073;51.994;4.448;2023-03-31T02:35:58;11.62;86.39
71291;DHT22;59073;51.994;4.448;2023-03-31T02:38:24;11.67;86.30
71291;DHT22;59073;51.994;4.448;2023-03-31T02:40:50;11.54;86.40
71291;DHT22;59073;51.994;4.448;2023-03-31T02:43:15;11.62;86.47
71291;DHT22;59073;51.994;4.448;2023-03-31T02:45:46;11.58;86.49
71291;DHT22;59073;51.994;4.448;2023-03-31T02:48:28;11.58;86.58
71291;DHT22;59073;51.994;4.448;2023-03-31T02:54:25;11.54;86.41
71291;DHT22;59073;51.994;4.448;2023-03-31T03:00:32;11.57;86.21
71291;DHT22;59073;51.994;4.448;2023-03-31T03:08:53;11.47;86.12
71291;DHT22;59073;51.994;4.448;2023-03-31T03:11:54;11.32;86.28
71291;DHT22;59073;51.994;4.448;2023-03-31T03:14:46;11.14;86.57
71291;DHT22;59073;51.994;4.448;2023-03-31T03:17:46;11.06;86.80
71291;DHT22;59073;51.994;4.448;2023-03-31T03:20:13;11.06;86.28
71291;DHT22;59073;51.994;4.448;2023-03-31T03:22:40;10.99;86.53
71291;DHT22;59073;51.994;4.448;2023-03-31T03:25:09;11.00;86.36
71291;DHT22;59073;51.994;4.448;2023-03-31T03:27:36;10.95;86.80
71291;DHT22;59073;51.994;4.448;2023-03-31T03:30:03;10.96;86.91
71291;DHT22;59073;51.994;4.448;2023-03-31T03:32:30;10.96;87.15
71291;DHT22;59073;51.994;4.448;2023-03-31T03:34:55;10.90;87.30
71291;DHT22;59073;51.994;4.448;2023-03-31T03:37:21;10.77;87.56
71291;DHT22;59073;51.994;4.448;2023-03-31T03:39:46;10.88;87.54
71291;DHT22;59073;51.994;4.448;2023-03-31T03:42:12;11.01;87.09
71291;DHT22;59073;51.994;4.448;2023-03-31T03:44:37;11.09;86.81
71291;DHT22;59073;51.994;4.448;2023-03-31T03:47:03;11.21;86.41
71291;DHT22;59073;51.994;4.448;2023-03-31T03:49:28;11.10;86.65
71291;DHT22;59073;51.994;4.448;2023-03-31T03:51:54;11.10;86.92
71291;DHT22;59073;51.994;4.448;2023-03-31T03:54:19;11.10;87.04
71291;DHT22;59073;51.994;4.448;2023-03-31T03:56:45;11.06;87.09
71291;DHT22;59073;51.994;4.448;2023-03-31T03:59:11;10.96;87.70
71291;DHT22;59073;51.994;4.448;2023-03-31T04:01:36;10.93;87.89
71291;DHT22;59073;51.994;4.448;2023-03-31T04:04:03;11.04;87.84
71291;DHT22;59073;51.994;4.448;2023-03-31T04:06:28;11.04;87.72
71291;DHT22;59073;51.994;4.448;2023-03-31T04:08:54;11.04;87.95
71291;DHT22;59073;51.994;4.448;2023-03-31T04:11:20;10.90;88.60
71291;DHT22;59073;51.994;4.448;2023-03-31T04:13:46;10.92;88.51
71291;DHT22;59073;51.994;4.448;2023-03-31T04:16:11;10.96;88.61
71291;DHT22;59073;51.994;4.448;2023-03-31T04:18:38;11.06;88.53
71291;DHT22;59073;51.994;4.448;2023-03-31T04:21:11;10.97;88.49
71291;DHT22;59073;51.994;4.448;2023-03-31T04:23:40;10.96;88.87
71291;DHT22;59073;51.994;4.448;2023-03-31T04:26:17;10.88;89.00
71291;DHT22;59073;51.994;4.448;2023-03-31T04:28:43;10.92;88.84
71291;DHT22;59073;51.994;4.448;2023-03-31T04:31:14;10.96;88.50
71291;DHT22;59073;51.994;4.448;2023-03-31T04:33:52;11.01;88.36
71291;DHT22;59073;51.994;4.448;2023-03-31T04:36:19;11.01;88.41
71291;DHT22;59073;51.994;4.448;2023-03-31T04:38:46;11.00;88.51
71291;DHT22;59073;51.994;4.448;2023-03-31T04:41:18;11.06;88.33
71291;DHT22;59073;51.994;4.448;2023-03-31T04:43:43;11.00;88.35
71291;DHT22;59073;51.994;4.448;2023-03-31T04:46:09;11.00;88.27
71291;DHT22;59073;51.994;4.448;2023-03-31T04:48:34;11.06;88.12
71291;DHT22;59073;51.994;4.448;2023-03-31T04:51:00;11.03;88.05
71291;DHT22;59073;51.994;4.448;2023-03-31T04:53:26;11.03;88.11
71291;DHT22;59073;51.994;4.448;2023-03-31T04:55:52;11.06;87.99
71291;DHT22;59073;51.994;4.448;2023-03-31T04:58:18;11.07;87.87
71291;DHT22;59073;51.994;4.448;2023-03-31T05:00:44;11.07;87.68
71291;DHT22;59073;51.994;4.448;2023-03-31T05:03:09;11.16;87.61
71291;DHT22;59073;51.994;4.448;2023-03-31T05:05:35;11.11;87.48
71291;DHT22;59073;51.994;4.448;2023-03-31T05:08:01;11.04;87.51
71291;DHT22;59073;51.994;4.448;2023-03-31T05:10:27;11.13;87.42
71291;DHT22;59073;51.994;4.448;2023-03-31T05:12:52;11.16;87.11
71291;DHT22;59073;51.994;4.448;2023-03-31T05:15:18;11.14;86.98
71291;DHT22;59073;51.994;4.448;2023-03-31T05:17:43;11.16;87.14
71291;DHT22;59073;51.994;4.448;2023-03-31T05:20:09;11.09;87.23
71291;DHT22;59073;51.994;4.448;2023-03-31T05:22:37;11.03;86.97
71291;DHT22;59073;51.994;4.448;2023-03-31T05:25:05;11.13;86.92
71291;DHT22;59073;51.994;4.448;2023-03-31T05:27:32;11.14;86.48
71291;DHT22;59073;51.994;4.448;2023-03-31T05:29:58;11.19;86.33
71291;DHT22;59073;51.994;4.448;2023-03-31T05:32:25;11.19;86.03
71291;DHT22;59073;51.994;4.448;2023-03-31T05:34:51;11.16;85.76
71291;DHT22;59073;51.994;4.448;2023-03-31T05:37:20;11.14;85.83
71291;DHT22;59073;51.994;4.448;2023-03-31T05:39:45;11.09;85.82
71291;DHT22;59073;51.994;4.448;2023-03-31T05:42:11;11.16;85.82
71291;DHT22;59073;51.994;4.448;2023-03-31T05:44:36;11.13;85.60
71291;DHT22;59073;51.994;4.448;2023-03-31T05:47:02;11.16;85.57
71291;DHT22;59073;51.994;4.448;2023-03-31T05:49:28;11.11;85.31
71291;DHT22;59073;51.994;4.448;2023-03-31T05:51:53;11.19;85.35
71291;DHT22;59073;51.994;4.448;2023-03-31T05:54:19;11.13;85.23
71291;DHT22;59073;51.994;4.448;2023-03-31T05:56:44;11.14;85.25
71291;DHT22;59073;51.994;4.448;2023-03-31T05:59:09;11.11;85.63
71291;DHT22;59073;51.994;4.448;2023-03-31T06:01:35;11.26;85.19
71291;DHT22;59073;51.994;4.448;2023-03-31T06:04:01;11.23;85.17
71291;DHT22;59073;51.994;4.448;2023-03-31T06:06:26;11.23;85.29
71291;DHT22;59073;51.994;4.448;2023-03-31T06:08:52;11.27;85.11
71291;DHT22;59073;51.994;4.448;2023-03-31T06:11:20;11.24;85.44
71291;DHT22;59073;51.994;4.448;2023-03-31T06:13:46;11.26;85.50
71291;DHT22;59073;51.994;4.448;2023-03-31T06:16:14;11.20;85.69
71291;DHT22;59073;51.994;4.448;2023-03-31T06:18:40;11.06;86.10
71291;DHT22;59073;51.994;4.448;2023-03-31T06:21:06;11.06;86.59
71291;DHT22;59073;51.994;4.448;2023-03-31T06:23:32;11.06;86.63
71291;DHT22;59073;51.994;4.448;2023-03-31T06:26:04;11.07;86.84
71291;DHT22;59073;51.994;4.448;2023-03-31T06:28:31;11.00;87.24
71291;DHT22;59073;51.994;4.448;2023-03-31T06:31:09;11.01;87.45
71291;DHT22;59073;51.994;4.448;2023-03-31T06:33:37;11.04;87.21
71291;DHT22;59073;51.994;4.448;2023-03-31T06:36:04;11.04;87.36
71291;DHT22;59073;51.994;4.448;2023-03-31T06:38:31;11.10;87.04
71291;DHT22;59073;51.994;4.448;2023-03-31T06:40:57;11.07;87.10
71291;DHT22;59073;51.994;4.448;2023-03-31T06:43:22;11.11;87.02
71291;DHT22;59073;51.994;4.448;2023-03-31T06:45:47;11.23;87.03
71291;DHT22;59073;51.994;4.448;2023-03-31T06:48:13;11.32;86.82
71291;DHT22;59073;51.994;4.448;2023-03-31T06:50:40;11.32;86.18
71291;DHT22;59073;51.994;4.448;2023-03-31T06:53:07;11.31;86.54
71291;DHT22;59073;51.994;4.448;2023-03-31T06:55:32;11.41;86.47
71291;DHT22;59073;51.994;4.448;2023-03-31T06:57:58;11.38;86.32
71291;DHT22;59073;51.994;4.448;2023-03-31T07:00:24;11.35;86.20
71291;DHT22;59073;51.994;4.448;2023-03-31T07:02:51;11.37;86.30
71291;DHT22;59073;51.994;4.448;2023-03-31T07:05:17;11.38;86.26
71291;DHT22;59073;51.994;4.448;2023-03-31T07:07:44;11.40;86.19
71291;DHT22;59073;51.994;4.448;2023-03-31T07:10:09;11.40;86.00
71291;DHT22;59073;51.994;4.448;2023-03-31T07:12:35;11.47;86.19
71291;DHT22;59073;51.994;4.448;2023-03-31T07:15:01;11.54;86.03
71291;DHT22;59073;51.994;4.448;2023-03-31T07:17:26;11.69;85.78
71291;DHT22;59073;51.994;4.448;2023-03-31T07:19:51;11.77;85.67
71291;DHT22;59073;51.994;4.448;2023-03-31T07:22:17;11.81;85.35
71291;DHT22;59073;51.994;4.448;2023-03-31T07:24:42;11.79;85.33
71291;DHT22;59073;51.994;4.448;2023-03-31T07:27:08;11.75;85.35
71291;DHT22;59073;51.994;4.448;2023-03-31T07:29:33;11.86;85.26
71291;DHT22;59073;51.994;4.448;2023-03-31T07:31:59;11.91;84.98
71291;DHT22;59073;51.994;4.448;2023-03-31T07:34:24;11.86;85.11
71291;DHT22;59073;51.994;4.448;2023-03-31T07:36:50;11.99;85.13
71291;DHT22;59073;51.994;4.448;2023-03-31T07:39:16;11.98;84.76
71291;DHT22;59073;51.994;4.448;2023-03-31T07:41:41;12.05;84.74
71291;DHT22;59073;51.994;4.448;2023-03-31T07:44:07;12.08;84.60
71291;DHT22;59073;51.994;4.448;2023-03-31T07:46:32;12.16;84.50
71291;DHT22;59073;51.994;4.448;2023-03-31T07:48:58;12.15;84.55
71291;DHT22;59073;51.994;4.448;2023-03-31T07:51:26;12.26;84.33
71291;DHT22;59073;51.994;4.448;2023-03-31T07:53:52;12.28;84.42
71291;DHT22;59073;51.994;4.448;2023-03-31T07:56:20;12.26;84.43
71291;DHT22;59073;51.994;4.448;2023-03-31T07:58:46;12.22;84.30
71291;DHT22;59073;51.994;4.448;2023-03-31T08:01:16;12.19;84.25
71291;DHT22;59073;51.994;4.448;2023-03-31T08:03:43;12.25;84.29
71291;DHT22;59073;51.994;4.448;2023-03-31T08:06:08;12.39;84.27
71291;DHT22;59073;51.994;4.448;2023-03-31T08:08:34;12.50;83.87
71291;DHT22;59073;51.994;4.448;2023-03-31T08:11:03;12.54;83.73
71291;DHT22;59073;51.994;4.448;2023-03-31T08:13:29;12.64;83.29
71291;DHT22;59073;51.994;4.448;2023-03-31T08:15:54;12.78;82.86
71291;DHT22;59073;51.994;4.448;2023-03-31T08:18:20;12.80;82.74
71291;DHT22;59073;51.994;4.448;2023-03-31T08:20:45;12.70;82.56
71291;DHT22;59073;51.994;4.448;2023-03-31T08:23:14;12.53;82.51
71291;DHT22;59073;51.994;4.448;2023-03-31T08:25:40;12.49;82.91
71291;DHT22;59073;51.994;4.448;2023-03-31T08:28:05;12.43;83.29
71291;DHT22;59073;51.994;4.448;2023-03-31T08:30:31;12.33;83.66
71291;DHT22;59073;51.994;4.448;2023-03-31T08:32:57;12.30;83.78
71291;DHT22;59073;51.994;4.448;2023-03-31T08:35:22;12.30;83.30
71291;DHT22;59073;51.994;4.448;2023-03-31T08:37:47;12.32;83.84
71291;DHT22;59073;51.994;4.448;2023-03-31T08:40:18;12.43;83.65
71291;DHT22;59073;51.994;4.448;2023-03-31T08:42:49;12.51;83.96
71291;DHT22;59073;51.994;4.448;2023-03-31T08:47:44;12.56;82.87
71291;DHT22;59073;51.994;4.448;2023-03-31T08:50:15;12.46;83.89
71291;DHT22;59073;51.994;4.448;2023-03-31T08:52:49;12.41;83.98
71291;DHT22;59073;51.994;4.448;2023-03-31T08:55:22;12.70;83.97
71291;DHT22;59073;51.994;4.448;2023-03-31T08:58:08;13.01;82.89
71291;DHT22;59073;51.994;4.448;2023-03-31T09:00:52;13.35;81.02
71291;DHT22;59073;51.994;4.448;2023-03-31T09:03:33;13.58;80.77
71291;DHT22;59073;51.994;4.448;2023-03-31T09:06:18;13.48;80.32
71291;DHT22;59073;51.994;4.448;2023-03-31T09:08:46;13.22;80.02
71291;DHT22;59073;51.994;4.448;2023-03-31T09:11:35;13.19;80.15
71291;DHT22;59073;51.994;4.448;2023-03-31T09:16:53;12.88;80.62
71291;DHT22;59073;51.994;4.448;2023-03-31T09:19:36;12.97;81.44
71291;DHT22;59073;51.994;4.448;2023-03-31T09:22:13;12.92;81.71
71291;DHT22;59073;51.994;4.448;2023-03-31T09:25:07;12.76;81.83
71291;DHT22;59073;51.994;4.448;2023-03-31T09:27:40;12.83;82.41
71291;DHT22;59073;51.994;4.448;2023-03-31T09:32:40;12.70;82.02
71291;DHT22;59073;51.994;4.448;2023-03-31T09:35:21;12.73;82.42
71291;DHT22;59073;51.994;4.448;2023-03-31T09:37:48;12.76;82.52
71291;DHT22;59073;51.994;4.448;2023-03-31T09:40:26;12.60;82.33
71291;DHT22;59073;51.994;4.448;2023-03-31T09:45:38;12.81;81.83
71291;DHT22;59073;51.994;4.448;2023-03-31T09:48:11;12.83;81.47
71291;DHT22;59073;51.994;4.448;2023-03-31T09:50:51;12.83;81.98
71291;DHT22;59073;51.994;4.448;2023-03-31T09:53:25;12.78;81.37
71291;DHT22;59073;51.994;4.448;2023-03-31T09:55:54;12.60;82.41
71291;DHT22;59073;51.994;4.448;2023-03-31T09:58:24;12.57;82.25
71291;DHT22;59073;51.994;4.448;2023-03-31T10:01:00;12.47;82.67
71291;DHT22;59073;51.994;4.448;2023-03-31T10:03:27;12.56;83.12
71291;DHT22;59073;51.994;4.448;2023-03-31T10:05:56;12.56;81.54
71291;DHT22;59073;51.994;4.448;2023-03-31T10:08:38;12.59;82.34
71291;DHT22;59073;51.994;4.448;2023-03-31T10:13:48;12.47;82.40
71291;DHT22;59073;51.994;4.448;2023-03-31T10:16:32;12.43;82.20
71291;DHT22;59073;51.994;4.448;2023-03-31T10:19:34;12.34;82.78
71291;DHT22;59073;51.994;4.448;2023-03-31T10:22:37;12.39;83.29
71291;DHT22;59073;51.994;4.448;2023-03-31T10:25:17;12.36;82.50
71291;DHT22;59073;51.994;4.448;2023-03-31T10:27:46;12.33;82.74
71291;DHT22;59073;51.994;4.448;2023-03-31T10:30:20;12.40;82.17
71291;DHT22;59073;51.994;4.448;2023-03-31T10:32:47;12.37;82.47
71291;DHT22;59073;51.994;4.448;2023-03-31T10:35:21;12.33;82.53
71291;DHT22;59073;51.994;4.448;2023-03-31T10:37:53;12.26;82.47
71291;DHT22;59073;51.994;4.448;2023-03-31T10:40:26;12.30;82.88
71291;DHT22;59073;51.994;4.448;2023-03-31T10:43:08;12.40;82.10
71291;DHT22;59073;51.994;4.448;2023-03-31T10:45:48;12.43;82.35
71291;DHT22;59073;51.994;4.448;2023-03-31T10:48:24;12.46;82.53
71291;DHT22;59073;51.994;4.448;2023-03-31T10:50:51;12.56;82.35
71291;DHT22;59073;51.994;4.448;2023-03-31T10:53:17;12.44;82.17
71291;DHT22;59073;51.994;4.448;2023-03-31T10:58:37;12.57;81.88
71291;DHT22;59073;51.994;4.448;2023-03-31T11:01:27;12.57;81.42
71291;DHT22;59073;51.994;4.448;2023-03-31T11:04:28;12.54;81.73
71291;DHT22;59073;51.994;4.448;2023-03-31T11:06:56;12.50;82.33
71291;DHT22;59073;51.994;4.448;2023-03-31T11:12:07;12.49;82.22
71291;DHT22;59073;51.994;4.448;2023-03-31T11:17:49;12.65;81.69
71291;DHT22;59073;51.994;4.448;2023-03-31T11:26:20;12.25;84.19
71291;DHT22;59073;51.994;4.448;2023-03-31T11:28:58;12.33;84.01
71291;DHT22;59073;51.994;4.448;2023-03-31T11:31:56;12.41;84.23
71291;DHT22;59073;51.994;4.448;2023-03-31T11:45:44;12.64;82.02
71291;DHT22;59073;51.994;4.448;2023-03-31T11:48:36;12.63;82.43
71291;DHT22;59073;51.994;4.448;2023-03-31T11:51:10;12.63;81.46
71291;DHT22;59073;51.994;4.448;2023-03-31T11:53:39;12.47;81.04
71291;DHT22;59073;51.994;4.448;2023-03-31T11:56:10;12.49;81.96
71291;DHT22;59073;51.994;4.448;2023-03-31T11:58:58;12.53;82.55
71291;DHT22;59073;51.994;4.448;2023-03-31T12:01:37;12.60;82.13
71291;DHT22;59073;51.994;4.448;2023-03-31T12:04:30;12.33;82.08
71291;DHT22;59073;51.994;4.448;2023-03-31T12:07:03;12.28;82.26
71291;DHT22;59073;51.994;4.448;2023-03-31T12:09:46;12.18;82.81
71291;DHT22;59073;51.994;4.448;2023-03-31T12:12:22;12.19;83.07
71291;DHT22;59073;51.994;4.448;2023-03-31T12:14:54;12.06;83.55
71291;DHT22;59073;51.994;4.448;2023-03-31T12:17:25;12.06;83.59
71291;DHT22;59073;51.994;4.448;2023-03-31T12:19:58;12.12;84.26
71291;DHT22;59073;51.994;4.448;2023-03-31T12:22:30;12.10;84.18
71291;DHT22;59073;51.994;4.448;2023-03-31T12:24:57;12.08;83.81
71291;DHT22;59073;51.994;4.448;2023-03-31T12:27:41;12.06;84.28
71291;DHT22;59073;51.994;4.448;2023-03-31T12:32:54;12.23;84.64
71291;DHT22;59073;51.994;4.448;2023-03-31T12:38:44;12.00;85.20
71291;DHT22;59073;51.994;4.448;2023-03-31T12:41:19;12.10;85.42
71291;DHT22;59073;51.994;4.448;2023-03-31T12:49:56;12.16;85.49
71291;DHT22;59073;51.994;4.448;2023-03-31T12:52:44;12.06;85.19
71291;DHT22;59073;51.994;4.448;2023-03-31T12:55:36;12.05;85.77
71291;DHT22;59073;51.994;4.448;2023-03-31T13:01:18;12.20;85.44
71291;DHT22;59073;51.994;4.448;2023-03-31T13:04:22;12.16;85.13
71291;DHT22;59073;51.994;4.448;2023-03-31T13:06:56;12.41;85.17
71291;DHT22;59073;51.994;4.448;2023-03-31T13:12:06;12.85;83.65
71291;DHT22;59073;51.994;4.448;2023-03-31T13:14:39;12.80;83.95
71291;DHT22;59073;51.994;4.448;2023-03-31T13:17:30;12.73;82.91
71291;DHT22;59073;51.994;4.448;2023-03-31T13:20:30;12.68;82.86
71291;DHT22;59073;51.994;4.448;2023-03-31T13:25:40;12.65;82.79
71291;DHT22;59073;51.994;4.448;2023-03-31T13:31:04;12.98;83.16
71291;DHT22;59073;51.994;4.448;2023-03-31T13:33:41;13.05;82.96
71291;DHT22;59073;51.994;4.448;2023-03-31T13:39:27;12.59;82.18
71291;DHT22;59073;51.994;4.448;2023-03-31T13:59:04;12.61;82.66
71291;DHT22;59073;51.994;4.448;2023-03-31T14:01:55;12.76;83.41
71291;DHT22;59073;51.994;4.448;2023-03-31T14:07:43;12.59;82.32
71291;DHT22;59073;51.994;4.448;2023-03-31T14:10:32;12.34;82.35
71291;DHT22;59073;51.994;4.448;2023-03-31T14:13:12;12.20;82.93
71291;DHT22;59073;51.994;4.448;2023-03-31T14:15:53;12.12;82.85
71291;DHT22;59073;51.994;4.448;2023-03-31T14:18:36;12.08;83.07
71291;DHT22;59073;51.994;4.448;2023-03-31T14:21:24;12.00;83.76
71291;DHT22;59073;51.994;4.448;2023-03-31T14:24:16;12.02;83.52
71291;DHT22;59073;51.994;4.448;2023-03-31T14:32:37;11.88;84.41
71291;DHT22;59073;51.994;4.448;2023-03-31T14:35:30;11.92;85.04
71291;DHT22;59073;51.994;4.448;2023-03-31T14:38:00;11.81;84.23
71291;DHT22;59073;51.994;4.448;2023-03-31T14:40:28;11.81;84.78
71291;DHT22;59073;51.994;4.448;2023-03-31T14:42:54;11.85;84.53
71291;DHT22;59073;51.994;4.448;2023-03-31T14:45:24;11.93;84.22
71291;DHT22;59073;51.994;4.448;2023-03-31T14:47:58;11.86;84.24
71291;DHT22;59073;51.994;4.448;2023-03-31T14:50:34;11.98;84.27
71291;DHT22;59073;51.994;4.448;2023-03-31T14:52:59;11.96;83.90
71291;DHT22;59073;51.994;4.448;2023-03-31T14:55:30;11.91;83.84
71291;DHT22;59073;51.994;4.448;2023-03-31T14:58:00;11.89;84.05
71291;DHT22;59073;51.994;4.448;2023-03-31T15:00:32;11.88;84.42
71291;DHT22;59073;51.994;4.448;2023-03-31T15:03:00;11.95;84.95
71291;DHT22;59073;51.994;4.448;2023-03-31T15:05:34;11.92;84.32
71291;DHT22;59073;51.994;4.448;2023-03-31T15:08:06;11.95;84.96
71291;DHT22;59073;51.994;4.448;2023-03-31T15:10:42;11.98;84.85
71291;DHT22;59073;51.994;4.448;2023-03-31T15:13:42;12.10;85.07
71291;DHT22;59073;51.994;4.448;2023-03-31T15:18:54;11.98;85.06
71291;DHT22;59073;51.994;4.448;2023-03-31T15:21:23;11.86;84.73
71291;DHT22;59073;51.994;4.448;2023-03-31T15:23:51;11.96;85.10
71291;DHT22;59073;51.994;4.448;2023-03-31T15:26:27;11.98;85.33
71291;DHT22;59073;51.994;4.448;2023-03-31T15:29:04;12.06;84.95
71291;DHT22;59073;51.994;4.448;2023-03-31T15:31:30;11.93;85.09
71291;DHT22;59073;51.994;4.448;2023-03-31T15:33:57;11.96;85.23
71291;DHT22;59073;51.994;4.448;2023-03-31T15:36:26;12.00;85.36
71291;DHT22;59073;51.994;4.448;2023-03-31T15:38:57;11.86;85.29
71291;DHT22;59073;51.994;4.448;2023-03-31T15:41:29;11.71;85.86
71291;DHT22;59073;51.994;4.448;2023-03-31T15:45:04;11.69;86.40
71291;DHT22;59073;51.994;4.448;2023-03-31T15:47:20;11.85;86.64
71291;DHT22;59073;51.994;4.448;2023-03-31T15:49:56;11.82;86.52
71291;DHT22;59073;51.994;4.448;2023-03-31T15:52:34;11.82;86.42
71291;DHT22;59073;51.994;4.448;2023-03-31T15:55:01;11.75;86.55
71291;DHT22;59073;51.994;4.448;2023-03-31T15:57:45;11.62;86.52
71291;DHT22;59073;51.994;4.448;2023-03-31T16:02:57;11.55;86.98
71291;DHT22;59073;51.994;4.448;2023-03-31T16:05:41;11.54;87.13
71291;DHT22;59073;51.994;4.448;2023-03-31T16:08:17;11.52;86.98
71291;DHT22;59073;51.994;4.448;2023-03-31T16:10:44;11.44;87.23
71291;DHT22;59073;51.994;4.448;2023-03-31T16:13:17;11.40;87.44
71291;DHT22;59073;51.994;4.448;2023-03-31T16:15:50;11.45;87.41
71291;DHT22;59073;51.994;4.448;2023-03-31T16:18:34;11.48;87.35
71291;DHT22;59073;51.994;4.448;2023-03-31T16:21:04;11.47;87.12
71291;DHT22;59073;51.994;4.448;2023-03-31T16:23:34;11.51;87.07
71291;DHT22;59073;51.994;4.448;2023-03-31T16:26:03;11.50;86.94
71291;DHT22;59073;51.994;4.448;2023-03-31T16:28:34;11.62;86.61
71291;DHT22;59073;51.994;4.448;2023-03-31T16:31:00;11.65;86.62
71291;DHT22;59073;51.994;4.448;2023-03-31T16:33:27;11.64;86.65
71291;DHT22;59073;51.994;4.448;2023-03-31T16:35:56;11.64;86.23
71291;DHT22;59073;51.994;4.448;2023-03-31T16:38:25;11.62;86.49
71291;DHT22;59073;51.994;4.448;2023-03-31T16:40:57;11.61;86.21
71291;DHT22;59073;51.994;4.448;2023-03-31T16:43:24;11.58;86.16
71291;DHT22;59073;51.994;4.448;2023-03-31T16:45:59;11.52;86.30
71291;DHT22;59073;51.994;4.448;2023-03-31T16:48:26;11.45;86.63
71291;DHT22;59073;51.994;4.448;2023-03-31T16:50:54;11.45;86.98
71291;DHT22;59073;51.994;4.448;2023-03-31T16:53:23;11.41;87.19
71291;DHT22;59073;51.994;4.448;2023-03-31T16:55:48;11.32;87.09
71291;DHT22;59073;51.994;4.448;2023-03-31T16:58:14;11.34;87.44
71291;DHT22;59073;51.994;4.448;2023-03-31T17:00:40;11.31;87.53
71291;DHT22;59073;51.994;4.448;2023-03-31T17:03:08;11.32;87.83
71291;DHT22;59073;51.994;4.448;2023-03-31T17:05:42;11.31;87.98
71291;DHT22;59073;51.994;4.448;2023-03-31T17:08:10;11.30;87.68
71291;DHT22;59073;51.994;4.448;2023-03-31T17:10:37;11.24;87.73
71291;DHT22;59073;51.994;4.448;2023-03-31T17:13:04;11.16;87.77
71291;DHT22;59073;51.994;4.448;2023-03-31T17:15:29;11.17;87.88
71291;DHT22;59073;51.994;4.448;2023-03-31T17:17:56;11.11;87.91
71291;DHT22;59073;51.994;4.448;2023-03-31T17:20:23;11.10;87.73
71291;DHT22;59073;51.994;4.448;2023-03-31T17:22:49;11.11;87.95
71291;DHT22;59073;51.994;4.448;2023-03-31T17:25:15;11.14;87.75
71291;DHT22;59073;51.994;4.448;2023-03-31T17:27:40;11.06;88.10
71291;DHT22;59073;51.994;4.448;2023-03-31T17:30:06;10.96;87.95
71291;DHT22;59073;51.994;4.448;2023-03-31T17:32:32;10.92;88.15
71291;DHT22;59073;51.994;4.448;2023-03-31T17:34:58;10.93;88.62
71291;DHT22;59073;51.994;4.448;2023-03-31T17:37:24;10.93;88.31
71291;DHT22;59073;51.994;4.448;2023-03-31T17:39:50;10.90;88.52
71291;DHT22;59073;51.994;4.448;2023-03-31T17:42:15;10.92;88.69
71291;DHT22;59073;51.994;4.448;2023-03-31T17:44:43;10.90;88.52
71291;DHT22;59073;51.994;4.448;2023-03-31T17:47:11;10.88;88.65
71291;DHT22;59073;51.994;4.448;2023-03-31T17:49:37;10.83;88.72
71291;DHT22;59073;51.994;4.448;2023-03-31T17:52:02;10.86;88.68
71291;DHT22;59073;51.994;4.448;2023-03-31T17:54:28;10.90;88.54
71291;DHT22;59073;51.994;4.448;2023-03-31T17:56:53;10.92;88.68
71291;DHT22;59073;51.994;4.448;2023-03-31T17:59:19;10.90;88.51
71291;DHT22;59073;51.994;4.448;2023-03-31T18:01:44;10.89;88.64
71291;DHT22;59073;51.994;4.448;2023-03-31T18:04:11;10.93;88.22
71291;DHT22;59073;51.994;4.448;2023-03-31T18:06:38;10.95;88.33
71291;DHT22;59073;51.994;4.448;2023-03-31T18:09:03;10.93;88.35